메인 페이지
METAR-TAF:

METAR-TAF

공항 :

키시너우 국제공항

키시너우, 몰도바

위도: 46-55-40N, 경도: 028-55-51E, 고도: 122m

현재 날씨관측

예보는 19분 전, 07:30시(UTC)에 발표되었습니다.
서남서6kt풍과 풍을 오가는
온도 17°C
습도 42%
기압 1026 hPa
시정 10km 이상
1500m 미만 상공 구름 및 적란운 없음

METAR: LUKK 100730Z 24006KT 190V280 CAVOK 17/04 Q1026 R08/D NOSIG

시각: 10:49 (07:49 UTC)

예보

예보는 2 시간 29분 전, 05:20시(UTC)에 발표되었습니다.
예보 대상 시간: 10일 06시부터 11일 06시까지 (UTC)
남남동8kt
시정 10km 이상
1500m 미만 상공 구름 및 적란운 없음
전환 중
10일 16시부터 10일 18시까지 (UTC)
여러 방향의 바람 4kt

TAF: LUKK 100520Z 1006/1106 16008KT CAVOK BECMG 1016/1018 VRB04KT

4,000개 이상의 공항 관측 자료 및 예보 (METAR 및 TAF 보고).

지도상에서 검색 가능한 기상관측소가 노란 점과 빨간 점으로 표시되어 있습니다.

기상관측소 명을 보려면 표시 위로 마우스를 이동하세요.

날씨 관측과 예보를 보려면 클릭하세요.

지도 변경 : 확대하려면 엑스 표시가 있는 녹색 버튼, 축소하려면 빼기 표시가 있는 녹색 버튼, 다음 페이지의 지도를 보려면 녹색 화살표를 클릭하세요.


METAR-TAF: